createdAt,value
2023-03-06T00:07:01.592Z,0
2023-03-06T00:17:01.660Z,0
2023-03-06T00:27:01.581Z,0
2023-03-06T00:37:01.653Z,0
2023-03-06T00:47:01.587Z,0
2023-03-06T00:57:01.660Z,0
2023-03-06T01:07:01.793Z,0
2023-03-06T01:17:01.631Z,0
2023-03-06T01:27:01.763Z,0
2023-03-06T01:37:01.638Z,0
2023-03-06T01:47:01.786Z,0
2023-03-06T01:57:01.636Z,0
2023-03-06T02:07:01.759Z,0
2023-03-06T02:17:01.894Z,0
2023-03-06T02:27:01.760Z,0
2023-03-06T02:37:01.831Z,0
2023-03-06T02:47:01.759Z,0
2023-03-06T02:57:01.812Z,0
2023-03-06T03:07:01.744Z,0
2023-03-06T03:17:01.814Z,0
2023-03-06T03:27:01.744Z,0
2023-03-06T03:37:01.804Z,0
2023-03-06T03:47:01.942Z,0
2023-03-06T03:57:01.799Z,0
2023-03-06T04:07:01.941Z,1
2023-03-06T04:17:01.789Z,1
2023-03-06T04:27:01.928Z,0
2023-03-06T04:37:01.792Z,0
2023-03-06T04:47:01.974Z,0
2023-03-06T04:57:01.832Z,1
2023-03-06T05:07:01.970Z,2
2023-03-06T05:17:01.822Z,0
2023-03-06T05:27:01.936Z,0
2023-03-06T05:37:02.013Z,0
2023-03-06T05:47:01.938Z,1
2023-03-06T05:57:02.012Z,0
2023-03-06T06:07:01.946Z,0
2023-03-06T06:17:01.994Z,0
2023-03-06T06:27:03.816Z,0
2023-03-06T06:37:01.995Z,1
2023-03-06T06:57:02.001Z,4
2023-03-06T07:07:02.131Z,2
2023-03-06T07:17:02.002Z,1
2023-03-06T07:27:02.123Z,8
2023-03-06T07:37:01.994Z,4
2023-03-06T07:47:02.142Z,4
2023-03-06T07:57:01.997Z,8
2023-03-06T08:07:02.137Z,1
2023-03-06T08:17:02.025Z,7
2023-03-06T08:27:02.130Z,9
2023-03-06T08:37:02.240Z,2
2023-03-06T08:47:02.269Z,8
2023-03-06T08:57:02.191Z,15
2023-03-06T09:07:02.112Z,11
2023-03-06T09:17:02.190Z,12
2023-03-06T09:27:02.116Z,7
2023-03-06T09:37:02.187Z,13
2023-03-06T09:47:02.418Z,16
2023-03-06T09:57:02.291Z,13
2023-03-06T10:07:03.296Z,6
2023-03-06T10:17:02.266Z,8
2023-03-06T10:27:02.249Z,9
2023-03-06T10:37:02.290Z,12
2023-03-06T10:47:02.201Z,12
2023-03-06T10:57:02.267Z,13
2023-03-06T11:07:02.387Z,15
2023-03-06T11:17:02.290Z,8
2023-03-06T11:27:02.416Z,15
2023-03-06T11:37:02.274Z,12
2023-03-06T11:47:02.524Z,23
2023-03-06T11:57:02.248Z,19
2023-03-06T12:07:02.388Z,13
2023-03-06T12:17:02.266Z,18
2023-03-06T12:27:02.398Z,19
2023-03-06T12:37:02.327Z,20
2023-03-06T12:47:02.399Z,18
2023-03-06T12:57:02.500Z,15
2023-03-06T13:07:02.563Z,17
2023-03-06T13:17:02.287Z,23
2023-03-06T13:27:02.595Z,17
2023-03-06T13:37:02.640Z,16
2023-03-06T13:47:02.428Z,3
2023-03-06T13:57:02.337Z,1
2023-03-06T14:07:02.945Z,6
2023-03-06T14:17:04.823Z,9
2023-03-06T14:27:02.441Z,7
2023-03-06T14:37:02.554Z,8
2023-03-06T14:47:02.582Z,9
2023-03-06T14:57:02.539Z,14
2023-03-06T15:07:02.521Z,9
2023-03-06T15:17:02.512Z,9
2023-03-06T15:27:02.533Z,7
2023-03-06T15:37:02.503Z,13
2023-03-06T15:47:08.624Z,12
2023-03-06T15:57:02.471Z,20
2023-03-06T16:07:02.612Z,19
2023-03-06T16:17:02.507Z,19
2023-03-06T16:27:02.624Z,8
2023-03-06T16:37:03.359Z,16
2023-03-06T16:47:02.604Z,6
2023-03-06T16:57:02.667Z,14
2023-03-06T17:07:02.585Z,13
2023-03-06T17:17:02.693Z,11
2023-03-06T17:27:02.579Z,10
2023-03-06T17:37:02.733Z,6
2023-03-06T17:47:02.585Z,9
2023-03-06T17:57:02.649Z,3
2023-03-06T18:07:02.837Z,2
2023-03-06T18:17:02.646Z,9
2023-03-06T18:27:02.757Z,7
2023-03-06T18:37:02.666Z,11
2023-03-06T18:47:02.784Z,4
2023-03-06T18:57:02.633Z,12
2023-03-06T19:07:02.758Z,2
2023-03-06T19:17:02.830Z,2
2023-03-06T19:27:02.869Z,2
2023-03-06T19:37:02.738Z,1
2023-03-06T19:47:02.873Z,3
2023-03-06T19:57:02.743Z,1
2023-03-06T20:07:02.902Z,4
2023-03-06T20:17:02.739Z,1
2023-03-06T20:27:02.884Z,2
2023-03-06T20:37:02.730Z,3
2023-03-06T20:47:02.884Z,0
2023-03-06T20:57:02.941Z,5
2023-03-06T21:07:02.862Z,1
2023-03-06T21:17:02.764Z,1
2023-03-06T21:27:02.897Z,4
2023-03-06T21:37:02.974Z,3
2023-03-06T21:47:02.914Z,3
2023-03-06T21:57:02.966Z,0
2023-03-06T22:07:02.885Z,2
2023-03-06T22:17:02.956Z,2
2023-03-06T22:27:02.881Z,1
2023-03-06T22:37:02.955Z,0
2023-03-06T22:47:02.880Z,0
2023-03-06T22:57:02.942Z,0
2023-03-06T23:07:03.147Z,0
2023-03-06T23:17:03.171Z,0
2023-03-06T23:27:03.264Z,0
2023-03-06T23:37:03.131Z,0
2023-03-06T23:47:03.155Z,0
2023-03-06T23:57:03.496Z,1
